createdAt,value
2019-02-14T00:02:28.546Z,76.41
2019-02-14T00:04:57.568Z,76.44
2019-02-14T00:07:26.591Z,76.51
2019-02-14T00:20:32.857Z,76.41
2019-02-14T00:23:01.858Z,76.37
2019-02-14T00:25:30.844Z,76.57
2019-02-14T00:27:59.922Z,77.24
2019-02-14T00:30:28.925Z,77.80
2019-02-14T00:32:57.966Z,77.85
2019-02-14T00:35:26.987Z,77.92
2019-02-14T00:37:55.978Z,77.79
2019-02-14T00:40:25.020Z,77.60
2019-02-14T00:42:54.003Z,77.48
2019-02-14T00:45:23.018Z,77.51
2019-02-14T00:47:52.035Z,77.87
2019-02-14T00:50:21.055Z,77.71
2019-02-14T00:52:50.042Z,77.46
2019-02-14T00:55:19.042Z,77.21
2019-02-14T00:57:49.945Z,77.04
2019-02-14T01:00:18.952Z,77.14
2019-02-14T01:02:47.932Z,77.44
2019-02-14T01:05:16.921Z,77.39
2019-02-14T01:07:45.983Z,77.27
2019-02-14T01:10:14.993Z,77.15
2019-02-14T01:12:44.176Z,77.00
2019-02-14T01:15:14.229Z,76.98
2019-02-14T01:17:43.215Z,76.99
2019-02-14T01:20:12.215Z,77.08
2019-02-14T01:22:41.211Z,77.25
2019-02-14T01:25:10.200Z,77.49
2019-02-14T01:27:39.222Z,77.82
2019-02-14T01:30:09.238Z,77.96
2019-02-14T01:32:38.217Z,78.02
2019-02-14T01:35:07.476Z,77.79
2019-02-14T01:37:36.456Z,77.72
2019-02-14T01:40:05.703Z,77.81
2019-02-14T01:42:34.700Z,77.70
2019-02-14T01:45:03.738Z,77.62
2019-02-14T01:47:32.732Z,77.70
2019-02-14T01:50:01.748Z,77.60
2019-02-14T01:52:30.744Z,77.87
2019-02-14T01:54:59.721Z,77.76
2019-02-14T01:57:28.701Z,77.76
2019-02-14T01:59:57.707Z,77.62
2019-02-14T02:02:26.754Z,77.62
2019-02-14T02:04:55.768Z,77.49
2019-02-14T02:07:24.757Z,77.65
2019-02-14T02:09:55.499Z,77.78
2019-02-14T02:12:24.488Z,77.85
2019-02-14T02:14:53.480Z,77.73
2019-02-14T02:17:22.475Z,77.73
2019-02-14T02:19:51.569Z,77.51
2019-02-14T02:22:20.567Z,77.61
2019-02-14T02:24:49.579Z,77.75
2019-02-14T02:27:18.561Z,77.80
2019-02-14T02:29:47.554Z,77.81
2019-02-14T02:32:16.544Z,77.76
2019-02-14T02:34:45.616Z,77.80
2019-02-14T02:37:14.613Z,77.72
2019-02-14T02:39:43.574Z,77.83
2019-02-14T02:42:12.567Z,78.01
2019-02-14T02:44:41.573Z,78.08
2019-02-14T02:47:10.578Z,78.15
2019-02-14T02:49:39.538Z,78.02
2019-02-14T02:52:08.524Z,78.24
2019-02-14T02:54:37.527Z,78.46
2019-02-14T02:57:06.521Z,78.31
2019-02-14T02:59:35.572Z,78.31
2019-02-14T03:02:04.559Z,78.38
2019-02-14T03:04:33.534Z,78.26
2019-02-14T03:07:02.522Z,78.33
2019-02-14T03:09:31.513Z,78.58
2019-02-14T03:12:00.544Z,78.67
2019-02-14T03:14:29.501Z,78.76
2019-02-14T03:16:58.475Z,78.81
2019-02-14T03:19:27.467Z,78.98
2019-02-14T03:21:56.503Z,78.91
2019-02-14T03:24:25.502Z,78.78
2019-02-14T03:26:54.513Z,78.76
2019-02-14T03:29:23.506Z,78.70
2019-02-14T03:31:52.527Z,78.65
2019-02-14T03:34:21.518Z,78.54
2019-02-14T03:36:50.523Z,78.56
2019-02-14T03:39:19.511Z,78.53
2019-02-14T03:41:48.490Z,78.40
2019-02-14T03:44:17.478Z,78.33
2019-02-14T03:46:46.480Z,78.17
2019-02-14T03:49:15.466Z,78.18
2019-02-14T03:51:44.492Z,78.11
2019-02-14T03:54:13.470Z,77.97
2019-02-14T03:56:42.452Z,78.19
2019-02-14T03:59:11.464Z,78.37
2019-02-14T04:01:40.470Z,78.39
2019-02-14T04:04:09.462Z,78.52
2019-02-14T04:06:38.465Z,78.46
2019-02-14T04:09:08.618Z,78.48
2019-02-14T04:11:37.649Z,78.46
2019-02-14T04:14:06.654Z,78.41
2019-02-14T04:16:35.649Z,78.25
2019-02-14T04:19:04.644Z,78.27
2019-02-14T04:21:33.623Z,78.43
2019-02-14T04:24:02.622Z,78.46
2019-02-14T04:26:31.635Z,78.50
2019-02-14T04:29:00.644Z,78.48
2019-02-14T04:31:29.623Z,78.53
2019-02-14T04:33:58.609Z,78.42
2019-02-14T04:36:35.538Z,78.39
2019-02-14T04:38:58.363Z,78.50
2019-02-14T04:41:27.355Z,78.56
2019-02-14T04:43:56.405Z,78.47
2019-02-14T04:46:25.402Z,78.59
2019-02-14T04:48:54.386Z,78.75
2019-02-14T04:51:23.394Z,78.93
2019-02-14T04:53:52.407Z,78.94
2019-02-14T04:56:21.405Z,78.86
2019-02-14T04:58:50.398Z,78.96
2019-02-14T05:01:19.424Z,78.84
2019-02-14T05:03:48.399Z,78.63
2019-02-14T05:06:17.392Z,78.39
2019-02-14T05:08:46.395Z,78.36
2019-02-14T05:11:15.392Z,78.48
2019-02-14T05:13:44.376Z,78.55
2019-02-14T05:16:13.371Z,78.53
2019-02-14T05:18:42.392Z,78.41
2019-02-14T05:21:11.400Z,78.57
2019-02-14T05:23:40.420Z,78.51
2019-02-14T05:26:09.409Z,78.64
2019-02-14T05:28:38.403Z,78.65
2019-02-14T05:31:07.391Z,78.61
2019-02-14T05:33:36.395Z,78.56
2019-02-14T05:36:05.399Z,78.53
2019-02-14T05:38:34.416Z,78.62
2019-02-14T05:41:03.455Z,78.78
2019-02-14T05:43:32.429Z,79.11
2019-02-14T05:46:01.421Z,79.69
2019-02-14T05:48:30.432Z,79.92
2019-02-14T05:50:59.425Z,79.87
2019-02-14T05:53:28.506Z,79.75
2019-02-14T05:55:57.537Z,79.63
2019-02-14T05:58:26.540Z,79.47
2019-02-14T06:00:55.564Z,79.40
2019-02-14T06:03:24.568Z,79.36
2019-02-14T06:05:53.551Z,79.31
2019-02-14T06:08:23.526Z,79.24
2019-02-14T06:10:52.583Z,79.20
2019-02-14T06:13:21.572Z,79.10
2019-02-14T06:15:50.574Z,79.16
2019-02-14T06:18:19.585Z,79.06
2019-02-14T06:20:48.568Z,79.07
2019-02-14T06:23:17.610Z,79.04
2019-02-14T06:25:46.594Z,79.20
2019-02-14T06:28:15.683Z,79.22
2019-02-14T06:30:44.681Z,79.17
2019-02-14T06:33:13.685Z,79.09
2019-02-14T06:35:42.707Z,79.05
2019-02-14T06:38:11.729Z,79.06
2019-02-14T06:40:40.759Z,79.02
2019-02-14T06:43:09.786Z,79.13
2019-02-14T06:45:38.770Z,79.18
2019-02-14T06:48:07.781Z,79.20
2019-02-14T06:50:36.823Z,79.18
2019-02-14T06:53:05.813Z,79.25
2019-02-14T06:55:34.799Z,79.46
2019-02-14T06:58:03.834Z,80.28
2019-02-14T07:00:32.870Z,80.28
2019-02-14T07:03:01.832Z,80.27
2019-02-14T07:05:30.824Z,80.18
2019-02-14T07:07:59.845Z,79.97
2019-02-14T07:10:28.846Z,79.79
2019-02-14T07:12:57.838Z,79.85
2019-02-14T07:15:26.886Z,79.68
2019-02-14T07:17:55.859Z,79.56
2019-02-14T07:20:24.847Z,79.48
2019-02-14T07:22:53.860Z,79.48
2019-02-14T07:25:22.890Z,78.72
2019-02-14T07:27:51.922Z,77.51
2019-02-14T07:30:21.386Z,76.96
2019-02-14T07:32:50.415Z,76.68
2019-02-14T07:35:19.437Z,76.53
2019-02-14T07:37:48.408Z,76.64
2019-02-14T07:40:17.448Z,76.70
2019-02-14T07:42:46.433Z,76.79
2019-02-14T07:45:15.441Z,76.80
2019-02-14T07:47:44.437Z,76.94
2019-02-14T07:50:13.525Z,76.87
2019-02-14T07:52:42.534Z,76.72
2019-02-14T08:05:35.729Z,76.26
2019-02-14T08:08:04.721Z,75.34
2019-02-14T08:10:33.732Z,74.43
2019-02-14T08:13:02.730Z,74.26
2019-02-14T08:15:31.733Z,73.64
2019-02-14T08:18:00.764Z,73.50
2019-02-14T08:20:29.806Z,72.33
2019-02-14T08:22:58.786Z,70.79
2019-02-14T08:25:27.843Z,70.27
2019-02-14T08:27:56.886Z,69.61
2019-02-14T08:30:25.831Z,69.29
2019-02-14T08:32:54.862Z,69.65
2019-02-14T08:35:23.926Z,70.06
2019-02-14T08:37:54.004Z,70.65
2019-02-14T08:40:24.403Z,70.56
2019-02-14T08:42:53.421Z,70.38
2019-02-14T08:45:22.407Z,69.85
2019-02-14T08:47:51.420Z,69.06
2019-02-14T08:50:20.409Z,68.29
2019-02-14T08:52:49.412Z,67.64
2019-02-14T08:55:18.391Z,66.85
2019-02-14T08:57:47.407Z,66.10
2019-02-14T09:00:16.460Z,64.74
2019-02-14T09:02:45.442Z,63.37
2019-02-14T09:05:14.467Z,63.42
2019-02-14T09:07:43.505Z,63.13
2019-02-14T09:10:13.241Z,62.78
2019-02-14T09:12:42.208Z,62.86
2019-02-14T09:15:11.337Z,63.29
2019-02-14T09:17:40.385Z,63.40
2019-02-14T09:20:11.086Z,63.66
2019-02-14T09:22:40.112Z,63.32
2019-02-14T09:25:09.178Z,62.52
2019-02-14T09:27:38.170Z,62.60
2019-02-14T09:30:07.214Z,62.34
2019-02-14T09:32:36.210Z,62.30
2019-02-14T09:35:05.584Z,62.14
2019-02-14T09:37:34.590Z,62.58
2019-02-14T09:40:03.568Z,63.00
2019-02-14T09:42:32.582Z,63.22
2019-02-14T09:45:01.599Z,62.61
2019-02-14T09:47:30.614Z,62.54
2019-02-14T09:49:59.601Z,62.98
2019-02-14T09:52:28.667Z,63.20
2019-02-14T09:54:57.670Z,63.14
2019-02-14T09:57:26.650Z,62.87
2019-02-14T09:59:55.659Z,62.58
2019-02-14T10:02:25.891Z,62.53
2019-02-14T10:04:55.209Z,62.78
2019-02-14T10:07:24.244Z,62.13
2019-02-14T10:09:53.297Z,62.30
2019-02-14T10:12:22.277Z,61.92
2019-02-14T10:14:51.302Z,61.45
2019-02-14T10:17:22.176Z,59.51
2019-02-14T10:19:51.033Z,57.80
2019-02-14T10:22:20.075Z,56.94
2019-02-14T10:24:49.095Z,55.17
2019-02-14T10:27:18.106Z,55.15
2019-02-14T10:29:47.104Z,53.92
2019-02-14T10:32:16.221Z,52.26
2019-02-14T10:34:45.230Z,51.64
2019-02-14T10:37:14.256Z,49.91
2019-02-14T10:39:43.272Z,48.27
2019-02-14T10:42:12.318Z,46.55
2019-02-14T10:44:41.298Z,46.23
2019-02-14T10:47:10.302Z,45.21
2019-02-14T10:49:39.340Z,44.60
2019-02-14T10:52:08.340Z,45.05
2019-02-14T10:54:37.433Z,44.82
2019-02-14T10:57:06.490Z,44.39
2019-02-14T10:59:35.493Z,43.36
2019-02-14T11:02:04.514Z,43.27
2019-02-14T11:04:33.540Z,44.04
2019-02-14T11:07:02.543Z,43.32
2019-02-14T11:09:31.559Z,43.24
2019-02-14T11:12:00.561Z,44.18
2019-02-14T11:14:29.632Z,43.01
2019-02-14T11:16:58.641Z,43.62
2019-02-14T11:19:27.647Z,43.50
2019-02-14T11:21:56.630Z,43.41
2019-02-14T11:24:25.713Z,44.17
2019-02-14T11:26:54.650Z,44.43
2019-02-14T11:29:23.683Z,44.82
2019-02-14T11:31:52.685Z,44.11
2019-02-14T11:34:21.761Z,44.73
2019-02-14T11:36:50.758Z,43.62
2019-02-14T11:39:19.756Z,43.91
2019-02-14T11:41:48.782Z,43.59
2019-02-14T11:44:17.794Z,44.22
2019-02-14T11:46:51.488Z,44.04
2019-02-14T11:49:17.502Z,45.10
2019-02-14T11:51:46.526Z,43.96
2019-02-14T11:54:15.562Z,44.27
2019-02-14T11:56:44.544Z,44.25
2019-02-14T11:59:13.538Z,43.41
2019-02-14T12:01:42.571Z,43.93
2019-02-14T12:04:11.571Z,43.64
2019-02-14T12:06:40.648Z,43.58
2019-02-14T12:09:09.677Z,42.62
2019-02-14T12:11:38.838Z,43.47
2019-02-14T12:14:07.912Z,43.13
2019-02-14T12:16:36.940Z,42.29
2019-02-14T12:19:05.971Z,43.27
2019-02-14T12:21:34.995Z,42.71
2019-02-14T12:24:04.041Z,42.91
2019-02-14T12:26:33.047Z,42.70
2019-02-14T12:29:02.078Z,42.03
2019-02-14T12:31:31.097Z,42.72
2019-02-14T12:34:00.161Z,41.87
2019-02-14T12:36:29.144Z,42.08
2019-02-14T12:38:58.173Z,41.80
2019-02-14T12:41:27.248Z,40.58
2019-02-14T12:43:56.277Z,38.89
2019-02-14T12:46:25.309Z,39.53
2019-02-14T12:48:54.357Z,36.94
2019-02-14T12:51:23.376Z,35.50
2019-02-14T12:54:43.510Z,34.67
2019-02-14T12:57:13.110Z,36.17
2019-02-14T12:59:42.098Z,33.65
2019-02-14T13:02:11.171Z,33.11
2019-02-14T13:04:43.192Z,34.07
2019-02-14T13:07:12.412Z,33.15
2019-02-14T13:09:41.834Z,32.66
2019-02-14T13:12:11.046Z,32.79
2019-02-14T13:14:40.240Z,32.52
2019-02-14T13:17:09.436Z,33.06
2019-02-14T13:19:38.462Z,32.86
2019-02-14T13:22:07.827Z,32.61
2019-02-14T13:24:36.884Z,31.80
2019-02-14T13:27:06.000Z,31.35
2019-02-14T13:29:34.982Z,31.88
2019-02-14T13:32:03.993Z,32.44
2019-02-14T13:34:33.021Z,31.81
2019-02-14T13:37:02.339Z,31.96
2019-02-14T13:39:32.693Z,31.49
2019-02-14T13:42:01.882Z,30.92
2019-02-14T13:44:30.905Z,31.17
2019-02-14T13:46:59.967Z,31.76
2019-02-14T13:49:29.035Z,31.70
2019-02-14T13:51:58.054Z,31.57
2019-02-14T13:54:27.084Z,32.20
2019-02-14T13:56:56.093Z,32.92
2019-02-14T13:59:25.129Z,33.10
2019-02-14T14:01:54.150Z,32.61
2019-02-14T14:04:23.157Z,32.00
2019-02-14T14:06:52.192Z,30.94
2019-02-14T14:09:21.262Z,30.58
2019-02-14T14:11:50.255Z,30.48
2019-02-14T14:14:19.333Z,31.26
2019-02-14T14:16:48.332Z,30.94
2019-02-14T14:19:17.328Z,29.60
2019-02-14T14:21:46.365Z,30.73
2019-02-14T14:24:16.624Z,31.41
2019-02-14T14:26:45.607Z,31.40
2019-02-14T14:29:14.638Z,31.99
2019-02-14T14:31:43.659Z,32.10
2019-02-14T14:34:12.687Z,32.11
2019-02-14T14:36:41.710Z,32.02
2019-02-14T14:39:10.707Z,31.60
2019-02-14T14:41:39.723Z,30.69
2019-02-14T14:44:18.640Z,32.69
2019-02-14T14:47:00.332Z,32.59
2019-02-14T14:49:29.344Z,31.71
2019-02-14T14:51:58.428Z,32.05
2019-02-14T14:54:27.532Z,32.58
2019-02-14T14:56:56.578Z,32.83
2019-02-14T14:59:25.643Z,32.30
2019-02-14T15:01:54.641Z,31.68
2019-02-14T15:04:23.703Z,32.31
2019-02-14T15:06:52.709Z,32.82
2019-02-14T15:09:21.747Z,33.10
2019-02-14T15:11:50.913Z,33.67
2019-02-14T15:14:19.968Z,33.48
2019-02-14T15:16:48.966Z,33.74
2019-02-14T15:19:17.965Z,33.89
2019-02-14T15:21:47.785Z,35.20
2019-02-14T15:24:16.807Z,36.36
2019-02-14T15:26:45.875Z,37.75
2019-02-14T15:29:14.931Z,38.35
2019-02-14T15:31:43.948Z,38.63
2019-02-14T15:34:12.992Z,38.25
2019-02-14T15:36:42.020Z,37.99
2019-02-14T15:39:11.034Z,38.18
2019-02-14T15:41:40.026Z,39.23
2019-02-14T15:44:09.104Z,40.43
2019-02-14T15:46:38.212Z,40.92
2019-02-14T15:49:07.196Z,41.47
2019-02-14T15:51:36.232Z,42.23
2019-02-14T15:54:07.316Z,43.62
2019-02-14T15:56:36.120Z,44.91
2019-02-14T15:59:05.239Z,46.24
2019-02-14T16:01:34.294Z,47.61
2019-02-14T16:04:04.900Z,48.37
2019-02-14T16:06:34.055Z,48.98
2019-02-14T16:09:04.160Z,49.19
2019-02-14T16:11:34.010Z,49.29
2019-02-14T16:14:04.986Z,49.62
2019-02-14T16:16:35.120Z,50.40
2019-02-14T16:19:04.275Z,50.79
2019-02-14T16:21:33.802Z,50.55
2019-02-14T16:24:02.799Z,50.25
2019-02-14T16:26:31.901Z,50.08
2019-02-14T16:29:02.023Z,49.86
2019-02-14T16:31:31.968Z,49.97
2019-02-14T16:34:01.101Z,50.31
2019-02-14T16:36:32.387Z,50.57
2019-02-14T16:39:01.474Z,51.00
2019-02-14T16:41:30.610Z,51.48
2019-02-14T16:43:59.639Z,51.64
2019-02-14T16:46:28.824Z,51.74
2019-02-14T16:48:57.954Z,52.03
2019-02-14T16:51:27.152Z,52.17
2019-02-14T16:53:56.295Z,52.55
2019-02-14T16:56:25.328Z,52.89
2019-02-14T16:58:54.724Z,53.39
2019-02-14T17:01:28.163Z,53.69
2019-02-14T17:03:57.417Z,54.06
2019-02-14T17:06:26.505Z,54.35
2019-02-14T17:08:55.686Z,54.64
2019-02-14T17:11:24.717Z,54.88
2019-02-14T17:13:53.862Z,55.19
2019-02-14T17:16:22.846Z,55.35
2019-02-14T17:18:51.958Z,55.56
2019-02-14T17:21:20.967Z,55.85
2019-02-14T17:23:49.989Z,55.94
2019-02-14T17:26:19.298Z,56.18
2019-02-14T17:28:48.626Z,56.44
2019-02-14T17:31:17.710Z,56.61
2019-02-14T17:33:46.745Z,56.65
2019-02-14T17:36:15.854Z,56.69
2019-02-14T17:38:44.913Z,56.87
2019-02-14T17:41:13.997Z,57.21
2019-02-14T17:43:43.342Z,57.53
2019-02-14T17:46:14.906Z,57.76
2019-02-14T17:48:44.167Z,57.99
2019-02-14T17:51:13.484Z,58.37
2019-02-14T17:53:42.886Z,58.72
2019-02-14T17:56:12.295Z,58.96
2019-02-14T17:58:41.876Z,59.16
2019-02-14T18:01:11.230Z,59.39
2019-02-14T18:03:40.596Z,59.56
2019-02-14T18:06:10.322Z,59.83
2019-02-14T18:08:40.188Z,59.98
2019-02-14T18:11:09.576Z,60.17
2019-02-14T18:13:39.602Z,60.21
2019-02-14T18:16:10.360Z,60.25
2019-02-14T18:18:40.566Z,60.51
2019-02-14T18:21:10.285Z,60.65
2019-02-14T18:23:39.826Z,60.72
2019-02-14T18:26:09.453Z,60.79
2019-02-14T18:28:39.040Z,60.85
2019-02-14T18:31:09.567Z,60.84
2019-02-14T18:33:40.285Z,61.16
2019-02-14T18:36:10.007Z,61.27
2019-02-14T18:38:40.074Z,61.39
2019-02-14T18:41:09.993Z,61.55
2019-02-14T18:43:40.119Z,61.64
2019-02-14T18:46:10.566Z,61.79
2019-02-14T18:48:40.916Z,62.09
2019-02-14T18:51:11.015Z,62.30
2019-02-14T18:53:40.816Z,62.52
2019-02-14T18:56:11.093Z,62.82
2019-02-14T18:58:42.226Z,62.85
2019-02-14T19:01:12.958Z,63.10
2019-02-14T19:03:44.502Z,63.27
2019-02-14T19:06:16.731Z,63.33
2019-02-14T19:08:48.508Z,63.39
2019-02-14T19:11:25.294Z,63.60
2019-02-14T19:13:59.393Z,63.68
2019-02-14T19:16:32.594Z,63.72
2019-02-14T19:19:05.848Z,63.75
2019-02-14T19:21:37.836Z,63.82
2019-02-14T19:24:12.042Z,63.92
2019-02-14T19:26:45.247Z,63.94
2019-02-14T19:29:17.807Z,64.00
2019-02-14T19:31:49.715Z,64.00
2019-02-14T19:34:22.540Z,64.22
2019-02-14T19:36:55.213Z,64.29
2019-02-14T19:39:26.713Z,64.38
2019-02-14T19:41:58.180Z,64.44
2019-02-14T19:44:28.678Z,64.53
2019-02-14T19:47:02.845Z,64.50
2019-02-14T19:49:39.797Z,64.47
2019-02-14T19:52:12.589Z,64.58
2019-02-14T19:54:45.342Z,64.78
2019-02-14T19:57:16.733Z,64.86
2019-02-14T19:59:48.221Z,65.06
2019-02-14T20:02:31.476Z,65.27
2019-02-14T20:05:02.855Z,65.51
2019-02-14T20:07:36.431Z,65.59
2019-02-14T20:10:09.507Z,65.61
2019-02-14T20:12:40.361Z,65.70
2019-02-14T20:15:13.458Z,65.92
2019-02-14T20:17:43.556Z,66.08
2019-02-14T20:20:16.936Z,66.14
2019-02-14T20:22:47.405Z,65.95
2019-02-14T20:25:18.557Z,66.01
2019-02-14T20:27:49.974Z,66.22
2019-02-14T20:30:24.947Z,66.48
2019-02-14T20:33:03.936Z,66.57
2019-02-14T20:35:26.374Z,66.52
2019-02-14T20:37:56.545Z,66.42
2019-02-14T20:40:32.062Z,66.44
2019-02-14T20:43:01.913Z,66.59
2019-02-14T20:45:32.044Z,66.71
2019-02-14T20:48:01.620Z,66.85
2019-02-14T20:50:31.574Z,66.97
2019-02-14T20:53:00.928Z,66.96
2019-02-14T20:55:30.503Z,67.15
2019-02-14T20:58:00.056Z,67.22
2019-02-14T21:00:38.464Z,67.29
2019-02-14T21:03:08.034Z,67.27
2019-02-14T21:05:37.712Z,67.38
2019-02-14T21:08:07.286Z,67.55
2019-02-14T21:10:36.924Z,67.61
2019-02-14T21:13:06.203Z,67.80
2019-02-14T21:15:35.371Z,67.91
2019-02-14T21:18:04.704Z,67.92
2019-02-14T21:20:34.255Z,67.91
2019-02-14T21:23:03.560Z,68.04
2019-02-14T21:25:32.794Z,67.95
2019-02-14T21:28:01.945Z,68.14
2019-02-14T21:30:35.666Z,68.16
2019-02-14T21:33:02.815Z,68.24
2019-02-14T21:35:31.918Z,68.36
2019-02-14T21:38:01.017Z,68.40
2019-02-14T21:40:30.090Z,68.45
2019-02-14T21:42:59.084Z,68.44
2019-02-14T21:45:28.170Z,68.51
2019-02-14T21:47:57.181Z,68.54
2019-02-14T21:50:26.214Z,68.78
2019-02-14T21:52:55.241Z,68.77
2019-02-14T21:55:24.336Z,68.93
2019-02-14T21:57:53.495Z,69.26
2019-02-14T22:00:22.545Z,69.37
2019-02-14T22:02:51.598Z,69.25
2019-02-14T22:05:25.190Z,69.33
2019-02-14T22:07:51.377Z,69.31
2019-02-14T22:10:20.438Z,69.17
2019-02-14T22:12:49.801Z,69.23
2019-02-14T22:15:18.829Z,69.28
2019-02-14T22:17:47.881Z,69.26
2019-02-14T22:20:17.032Z,69.28
2019-02-14T22:22:46.028Z,69.39
2019-02-14T22:25:15.106Z,69.50
2019-02-14T22:27:44.118Z,69.66
2019-02-14T22:30:15.200Z,69.63
2019-02-14T22:32:44.299Z,69.67
2019-02-14T22:35:13.302Z,69.75
2019-02-14T22:37:42.307Z,69.83
2019-02-14T22:40:11.208Z,69.91
2019-02-14T22:42:46.632Z,69.97
2019-02-14T22:45:11.033Z,70.07
2019-02-14T22:47:40.049Z,70.21
2019-02-14T22:50:09.186Z,70.44
2019-02-14T22:52:38.311Z,70.60
2019-02-14T22:55:07.815Z,70.50
2019-02-14T22:57:36.776Z,70.53
2019-02-14T23:00:16.035Z,70.42
2019-02-14T23:02:45.021Z,70.36
2019-02-14T23:05:14.026Z,70.42
2019-02-14T23:07:43.052Z,70.35
2019-02-14T23:10:12.032Z,70.37
2019-02-14T23:12:41.011Z,70.31
2019-02-14T23:15:09.991Z,70.42
2019-02-14T23:17:39.064Z,70.44
2019-02-14T23:20:07.999Z,70.42
2019-02-14T23:22:36.990Z,70.47
2019-02-14T23:25:05.947Z,70.57
2019-02-14T23:27:34.893Z,70.74
2019-02-14T23:30:03.773Z,70.91
2019-02-14T23:32:32.686Z,70.85
2019-02-14T23:35:01.679Z,71.00
2019-02-14T23:37:30.687Z,71.28
2019-02-14T23:39:59.676Z,71.21
2019-02-14T23:42:28.697Z,71.03
2019-02-14T23:44:57.709Z,71.04
2019-02-14T23:47:26.739Z,71.35
2019-02-14T23:49:55.901Z,71.33
2019-02-14T23:52:24.930Z,71.34
2019-02-14T23:54:53.963Z,71.95
2019-02-14T23:57:23.029Z,71.94
2019-02-14T23:59:52.013Z,71.91
